Terminal Aerodrome Forecast
Issued by NWS Paducah, KY

Home | Current Version | Previous Version | Text Only | Print | Product List | Glossary On
Versions: 1 2 3 4 5 6 7 8 9 10 11 12 13 14 15 16 17
675
FTUS43 KPAH 132340
TAFEVV
TAF
KEVV 132340Z 1400/1424 05005KT P6SM OVC080
     FM141000 08006KT P6SM -SN SCT025 OVC050
     FM141500 13008KT 3SM -SN SCT015 OVC025
     FM142200 14007KT 4SM -FZDZ BR OVC015=

USA.gov is the U.S. government's official web portal to all federal, state and local government web resources and services.